Terminal Aerodrome Forecast
Issued by NWS

Home | Current Version | Previous Version | Text Only | Print | Product List | Glossary On
Versions: 1 2 3 4 5 6 7 8 9 10 11 12 13 14 15 16
000
FTUS43 KJKL 240054 AAA
TAFSME
TAF AMD
KSME 240054Z 2401/2424 19008KT P6SM -RA BKN030
     FM240200 23010KT 6SM -SHRA BR OVC015
     FM240600 27004KT 1SM BR OVC010
     FM241000 30003KT 1/2SM FG OVC007
     FM241300 30004KT 6SM BR SCT010
     FM241500 29007KT P6SM FEW050=

USA.gov is the U.S. government's official web portal to all federal, state and local government web resources and services.